07:13
Airports
History
Links
Donate
Help keep this website running!
PayPal
Bitcoin
This page is community maintained. The information is intended for PC simulator navigation or reference.
Always use approved charts for navigation.
LFPI
Paris Issy les Moulineaux
Paris Issy les Moulineaux (LFPI)
Paris, Île-de-France, France (75015)
(C)
Lat/Lng:48° 49' 59.44" N / 2° 16' 22.28" E
48.833179 / 2.272856
Elevation:105'ft / 32mMSL
ID / ICAO:LFPI
Runways:1
Longest:24-06
Grass 354m / 1,162ft
Controlled:Yes
Nearby Weather07:00 GMT 2017-09-23
Nearby weather at LFPV, Velizy located 5.2 nautical miles from LFPI
Altimeter: 30.21
Visibility: 5.6 statute miles
Wind: 4 knots (from 070°)
Temp: 12°c / 54°f
Humidity: 87.6%

METAR: LFPV 230700Z AUTO 07004KT 9000 NSC 12/10 Q1023 NOSIG

(Powered by phpweather)
Nearby VORs <50NM
Nearby NDBs
Runway 24 / 06
Dimensions:354.1 x 50m 1162' x 164'ft
Surface:Grass
Edge Lights:Medium intensity
Runway 24 [A]Runway 06 [B]
Heading:240°TH 060°TH
Lat:
Lng:
48° 50' 2.19"N
2° 16' 29.81"E
48° 49' 56.7"N
2° 16' 14.75"E
User Notes and Comments
48° 49' 59.44" N / 2° 16' 22.28" E
Distance To
Airport ID:
Nearby Airports
(C) Velizy 5.2 NM
LFPV ( WX ) SW 218°
(C) Paris Orly 8.3 NM
LFPO ( WX ) SSE 151°
(C) Toussus-le-Noble 9.4 NM
LFPN ( WX ) SW 233°
4 Saint Cyr l Ecole 9.5 NM
LFPZ W 261°
(C) Paris Le Bourget 11.8 NM
LFPB ( WX ) NE 40°
(C) Chavenay Villepreux 13.3 NM
LFPX W 272°
4 Enghien Moisselles 15.2 NM
LFFE NNE 14°
VFR Chart
Flight Planning at SkyVector.com